Time;durP1;ratioP1;P1;durP2;ratioP2;P2;SDS_P1;SDS_P2;PMS_P1;PMS_P2;Temp;Humidity;BMP_temperature;BMP_pressure;BME280_temperature;BME280_humidity;BME280_pressure;Samples;Min_cycle;Max_cycle;Signal;HPM_P1;HPM_P2
2021/03/04 00:00:10;;;;;;;40.67;16.42;;;6.80;91.00;;;;;;5005871;28;20053;-70
2021/03/04 00:02:37;;;;;;;39.67;17.40;;;6.80;91.00;;;;;;5005381;28;20126;-70
2021/03/04 00:05:05;;;;;;;36.63;14.88;;;6.80;91.00;;;;;;5010557;28;20050;-70
2021/03/04 00:07:31;;;;;;;41.55;15.95;;;6.80;91.10;;;;;;5007148;28;20049;-70
2021/03/04 00:09:57;;;;;;;41.30;16.42;;;6.80;91.10;;;;;;5004806;28;20065;-70
2021/03/04 00:12:24;;;;;;;40.67;15.98;;;6.80;91.10;;;;;;5007169;28;20186;-70
2021/03/04 00:14:50;;;;;;;38.78;16.60;;;6.80;91.10;;;;;;5005141;28;20079;-70
2021/03/04 00:17:17;;;;;;;40.10;15.38;;;6.80;91.20;;;;;;5005144;28;20046;-70
2021/03/04 00:19:44;;;;;;;41.67;16.35;;;6.80;91.20;;;;;;5005439;28;20708;-70
2021/03/04 00:22:10;;;;;;;38.17;16.10;;;6.80;91.50;;;;;;5008724;28;20042;-70
2021/03/04 00:24:36;;;;;;;40.83;15.23;;;6.70;91.20;;;;;;5007626;28;20056;-70
2021/03/04 00:27:03;;;;;;;38.70;15.88;;;6.80;91.30;;;;;;5006255;28;20049;-70
2021/03/04 00:29:29;;;;;;;34.08;14.88;;;6.70;91.30;;;;;;5002736;28;20062;-70
2021/03/04 00:31:55;;;;;;;38.13;14.32;;;6.70;91.30;;;;;;5006157;28;20131;-70
2021/03/04 00:34:22;;;;;;;38.60;14.60;;;6.60;91.40;;;;;;5001721;28;20050;-70
2021/03/04 00:36:48;;;;;;;35.17;13.25;;;6.60;91.40;;;;;;5007811;28;20150;-70
2021/03/04 00:39:14;;;;;;;28.23;12.77;;;6.60;91.40;;;;;;5005066;28;20048;-70
2021/03/04 00:41:40;;;;;;;31.60;14.10;;;6.50;91.50;;;;;;5006331;28;20460;-70
2021/03/04 00:44:07;;;;;;;33.53;13.50;;;6.60;91.50;;;;;;5007509;28;20477;-70
2021/03/04 00:46:34;;;;;;;30.00;12.93;;;6.60;91.50;;;;;;5007336;28;20064;-70
2021/03/04 00:49:01;;;;;;;29.67;13.43;;;6.60;91.50;;;;;;5006204;28;20068;-70
2021/03/04 00:51:28;;;;;;;34.30;13.48;;;6.60;91.50;;;;;;5003902;28;20058;-70
2021/03/04 00:53:55;;;;;;;31.83;13.40;;;6.60;91.50;;;;;;5007269;28;20070;-70
2021/03/04 00:56:21;;;;;;;32.15;14.23;;;6.60;91.50;;;;;;5004739;28;20046;-70
2021/03/04 00:58:47;;;;;;;28.67;12.82;;;6.60;91.50;;;;;;5004934;28;20038;-69
2021/03/04 01:01:16;;;;;;;30.85;13.48;;;6.60;91.50;;;;;;5004363;28;20056;-70
2021/03/04 01:03:42;;;;;;;29.67;13.07;;;6.60;91.50;;;;;;5007306;28;20072;-70
2021/03/04 01:06:08;;;;;;;29.38;13.13;;;6.50;91.50;;;;;;5003367;28;20050;-70
2021/03/04 01:08:34;;;;;;;29.88;12.73;;;6.50;91.50;;;;;;5099605;27;20099;-70
2021/03/04 01:11:01;;;;;;;26.70;12.27;;;6.50;91.50;;;;;;5006320;28;20081;-70
2021/03/04 01:13:27;;;;;;;28.95;12.27;;;6.50;91.50;;;;;;5005169;28;20425;-70
2021/03/04 01:15:54;;;;;;;27.30;13.32;;;6.50;91.60;;;;;;5002111;28;20078;-70
2021/03/04 01:18:26;;;;;;;25.83;11.77;;;6.50;91.60;;;;;;5004209;28;20042;-70
2021/03/04 01:20:52;;;;;;;30.20;12.85;;;6.50;91.60;;;;;;5002253;28;20049;-70
2021/03/04 01:23:19;;;;;;;28.63;13.43;;;6.40;91.60;;;;;;5002231;28;20056;-70
2021/03/04 01:25:45;;;;;;;25.70;11.13;;;6.40;91.70;;;;;;5004019;28;20051;-70
2021/03/04 01:28:13;;;;;;;28.42;12.57;;;6.40;91.70;;;;;;5005942;28;20050;-70
2021/03/04 01:30:39;;;;;;;26.05;11.15;;;6.30;91.60;;;;;;5004579;28;20454;-70
2021/03/04 01:33:17;;;;;;;25.27;11.75;;;6.30;91.70;;;;;;5003885;28;20485;-70
2021/03/04 01:35:43;;;;;;;28.85;11.90;;;6.30;91.70;;;;;;5006758;28;20095;-70
2021/03/04 01:38:10;;;;;;;28.73;11.60;;;6.20;91.70;;;;;;5003044;28;20376;-70
2021/03/04 01:40:37;;;;;;;24.00;10.93;;;6.20;91.70;;;;;;5005154;28;20495;-70
2021/03/04 01:43:03;;;;;;;27.75;11.55;;;6.20;91.70;;;;;;5003501;28;20357;-71
2021/03/04 01:45:29;;;;;;;26.75;11.65;;;6.30;91.80;;;;;;5005735;28;20136;-70
2021/03/04 01:47:57;;;;;;;26.73;11.02;;;6.20;91.70;;;;;;5003875;28;20430;-70
2021/03/04 01:50:25;;;;;;;29.23;12.45;;;6.20;91.80;;;;;;5003204;28;20471;-70
2021/03/04 01:52:52;;;;;;;28.00;11.85;;;6.20;91.80;;;;;;5099087;27;20050;-70
2021/03/04 01:55:20;;;;;;;27.40;12.00;;;6.20;91.90;;;;;;5006051;28;20060;-70
2021/03/04 01:57:47;;;;;;;29.30;11.13;;;6.20;91.80;;;;;;5003873;28;20129;-70
2021/03/04 02:00:17;;;;;;;30.40;12.32;;;6.20;91.90;;;;;;5098849;27;20054;-70
2021/03/04 02:02:43;;;;;;;27.83;11.95;;;6.10;91.80;;;;;;5007419;28;20042;-70
2021/03/04 02:05:15;;;;;;;31.60;11.93;;;6.10;91.80;;;;;;4998527;28;20146;-70
2021/03/04 02:08:00;;;;;;;25.88;11.35;;;6.10;91.80;;;;;;5105304;27;20345;-70
2021/03/04 02:10:43;;;;;;;28.15;11.55;;;6.20;91.90;;;;;;4998159;28;20058;-70
2021/03/04 02:13:33;;;;;;;32.67;13.23;;;6.20;91.90;;;;;;5004779;28;20132;-70
2021/03/04 02:16:17;;;;;;;27.77;12.10;;;6.20;91.90;;;;;;5001233;28;20050;-70
2021/03/04 02:18:50;;;;;;;24.00;11.40;;;6.20;92.00;;;;;;5003949;28;20046;-70
2021/03/04 02:21:54;;;;;;;26.48;11.10;;;6.20;91.90;;;;;;5004099;28;20056;-70
2021/03/04 02:24:46;;;;;;;25.83;10.60;;;6.20;91.90;;;;;;5001832;28;20060;-70
2021/03/04 02:27:17;;;;;;;21.42;9.95;;;6.20;91.90;;;;;;5000739;28;20057;-70
2021/03/04 02:29:48;;;;;;;23.55;10.00;;;6.10;91.80;;;;;;5002599;28;20050;-70
2021/03/04 02:32:23;;;;;;;25.85;11.25;;;6.10;91.90;;;;;;4997678;28;20054;-70
2021/03/04 02:35:06;;;;;;;26.58;11.10;;;6.00;91.90;;;;;;5003671;28;20129;-70
2021/03/04 02:37:37;;;;;;;24.15;12.30;;;6.10;92.00;;;;;;5004738;28;20046;-69
2021/03/04 02:40:05;;;;;;;24.20;10.82;;;6.00;91.90;;;;;;5004347;28;20509;-71
2021/03/04 02:42:32;;;;;;;26.20;11.93;;;6.00;92.00;;;;;;5006770;28;20134;-70
2021/03/04 02:44:59;;;;;;;22.40;11.35;;;6.00;92.00;;;;;;5007062;28;20050;-71
2021/03/04 02:47:26;;;;;;;27.30;11.60;;;6.00;92.00;;;;;;5006961;28;20137;-70
2021/03/04 02:49:54;;;;;;;28.63;12.60;;;6.00;92.00;;;;;;5005403;28;20052;-70
2021/03/04 02:52:21;;;;;;;31.00;13.45;;;6.00;92.00;;;;;;5006527;28;20052;-70
2021/03/04 02:54:48;;;;;;;33.90;13.90;;;6.00;92.10;;;;;;5006196;28;20088;-70
2021/03/04 02:57:16;;;;;;;27.00;13.55;;;6.00;92.10;;;;;;5008626;28;20053;-70
2021/03/04 02:59:43;;;;;;;32.70;13.23;;;6.00;92.10;;;;;;5003144;28;20134;-70
2021/03/04 03:02:11;;;;;;;33.42;14.95;;;6.00;92.10;;;;;;5006954;28;20141;-70
2021/03/04 03:04:41;;;;;;;29.30;12.85;;;6.10;92.20;;;;;;5007367;28;20053;-70
2021/03/04 03:07:08;;;;;;;;;;;6.00;92.40;;;;;;5004549;28;20046;-70
2021/03/04 03:09:37;;;;;;;23.85;11.68;;;6.00;92.50;;;;;;5007580;28;20283;-70
2021/03/04 03:12:04;;;;;;;26.45;11.32;;;6.00;92.20;;;;;;5004285;28;20046;-70
2021/03/04 03:14:32;;;;;;;27.30;12.05;;;6.00;92.10;;;;;;5010709;28;20129;-70
2021/03/04 03:16:59;;;;;;;30.13;13.32;;;6.00;92.10;;;;;;5004930;28;20137;-69
2021/03/04 03:19:26;;;;;;;23.63;11.35;;;5.90;92.10;;;;;;5007578;28;20404;-70
2021/03/04 03:21:53;;;;;;;26.20;12.02;;;5.90;92.20;;;;;;5007085;28;20145;-70
2021/03/04 03:24:19;;;;;;;27.48;11.63;;;5.90;92.20;;;;;;5005487;28;20224;-70
2021/03/04 03:26:46;;;;;;;25.85;11.20;;;5.80;92.20;;;;;;5005674;28;20511;-69
2021/03/04 03:29:13;;;;;;;24.67;11.65;;;5.80;92.30;;;;;;5008856;28;20079;-70
2021/03/04 03:31:41;;;;;;;26.58;12.05;;;5.80;92.30;;;;;;5017959;28;20046;-70
2021/03/04 03:34:10;;;;;;;25.83;11.02;;;5.80;92.30;;;;;;5007643;28;20079;-70
2021/03/04 03:36:37;;;;;;;22.65;11.13;;;5.80;92.40;;;;;;5008645;28;20044;-70
2021/03/04 03:39:06;;;;;;;25.77;11.43;;;5.80;92.40;;;;;;5005423;28;20060;-70
2021/03/04 03:41:39;;;;;;;29.92;12.73;;;5.90;92.40;;;;;;5001483;28;20117;-70
2021/03/04 03:44:08;;;;;;;25.77;11.40;;;5.90;92.40;;;;;;5007914;28;20054;-70
2021/03/04 03:46:36;;;;;;;26.02;11.63;;;5.90;92.50;;;;;;5003939;28;20182;-70
2021/03/04 03:49:07;;;;;;;25.75;11.98;;;5.80;92.40;;;;;;5008862;28;20042;-70
2021/03/04 03:51:34;;;;;;;26.00;12.05;;;5.80;92.40;;;;;;5017410;28;20048;-70
2021/03/04 03:54:03;;;;;;;26.10;12.13;;;5.80;92.40;;;;;;4996012;28;20058;-70
2021/03/04 03:56:31;;;;;;;23.77;11.93;;;5.70;92.50;;;;;;5000910;28;20050;-70
2021/03/04 03:58:58;;;;;;;26.35;12.13;;;5.70;92.50;;;;;;5096619;27;20050;-71
2021/03/04 04:01:29;;;;;;;26.48;12.07;;;5.70;92.60;;;;;;4997941;28;20054;-70
2021/03/04 04:03:57;;;;;;;24.05;10.88;;;5.70;92.60;;;;;;5000594;28;20145;-70
2021/03/04 04:06:28;;;;;;;25.42;11.77;;;5.70;92.60;;;;;;5000313;28;20437;-70
2021/03/04 04:08:55;;;;;;;26.60;11.48;;;5.70;92.60;;;;;;5098676;27;20091;-70
2021/03/04 04:11:23;;;;;;;26.58;11.77;;;5.70;92.60;;;;;;5001586;28;20534;-71
2021/03/04 04:13:50;;;;;;;26.98;11.48;;;5.70;92.60;;;;;;5000749;28;20064;-70
2021/03/04 04:16:17;;;;;;;21.40;10.18;;;5.70;92.70;;;;;;5001972;28;20584;-70
2021/03/04 04:18:45;;;;;;;25.75;10.88;;;5.70;92.70;;;;;;5000992;28;20069;-70
2021/03/04 04:21:13;;;;;;;20.90;10.23;;;5.70;92.70;;;;;;4997786;28;20107;-70
2021/03/04 04:23:41;;;;;;;21.85;9.80;;;5.70;92.70;;;;;;5001870;28;20311;-70
2021/03/04 04:26:08;;;;;;;20.25;10.00;;;5.70;92.70;;;;;;5004649;28;20502;-70
2021/03/04 04:28:34;;;;;;;20.40;9.73;;;5.70;92.60;;;;;;4998785;28;20061;-70
2021/03/04 04:31:01;;;;;;;20.02;9.77;;;5.70;92.60;;;;;;4998013;28;20101;-70
2021/03/04 04:33:27;;;;;;;24.85;10.65;;;5.70;92.60;;;;;;4997734;28;20401;-70
2021/03/04 04:35:54;;;;;;;20.67;10.05;;;5.70;92.70;;;;;;5001443;28;20075;-70
2021/03/04 04:38:21;;;;;;;24.27;10.32;;;5.70;92.70;;;;;;5101112;27;20077;-70
2021/03/04 04:40:47;;;;;;;27.75;10.95;;;5.60;92.70;;;;;;4999623;28;20137;-70
2021/03/04 04:43:14;;;;;;;21.60;9.38;;;5.60;92.80;;;;;;4996704;28;20065;-70
2021/03/04 04:45:40;;;;;;;19.90;8.73;;;5.60;92.80;;;;;;4999815;28;20464;-70
2021/03/04 04:48:07;;;;;;;25.17;9.68;;;5.60;92.80;;;;;;5000259;28;20054;-70
2021/03/04 04:50:34;;;;;;;24.08;10.38;;;5.60;92.80;;;;;;5000155;28;20053;-70
2021/03/04 04:53:00;;;;;;;23.08;9.77;;;5.60;92.80;;;;;;5000385;28;20153;-70
2021/03/04 04:55:26;;;;;;;20.88;9.93;;;5.60;92.80;;;;;;4998796;28;20118;-70
2021/03/04 04:57:53;;;;;;;22.88;9.05;;;5.60;92.90;;;;;;5004355;28;20046;-70
2021/03/04 05:00:20;;;;;;;24.02;9.75;;;5.60;92.90;;;;;;5002981;28;20045;-70
2021/03/04 05:02:46;;;;;;;24.10;9.23;;;5.60;92.90;;;;;;5003112;28;20046;-70
2021/03/04 05:05:12;;;;;;;23.55;8.88;;;5.60;92.90;;;;;;4999755;28;20057;-70
2021/03/04 05:07:39;;;;;;;23.80;9.60;;;5.60;92.90;;;;;;5092146;27;20068;-70
2021/03/04 05:10:07;;;;;;;23.83;10.27;;;5.60;92.90;;;;;;4998759;28;20050;-70
2021/03/04 05:12:34;;;;;;;24.93;9.70;;;5.60;92.90;;;;;;5000840;28;20042;-70
2021/03/04 05:15:01;;;;;;;24.17;9.82;;;5.60;92.90;;;;;;5002457;28;20651;-70
2021/03/04 05:17:27;;;;;;;24.27;9.85;;;5.60;93.10;;;;;;5000539;28;20052;-69
2021/03/04 05:19:54;;;;;;;21.92;9.45;;;5.60;92.90;;;;;;5001658;28;20138;-70
2021/03/04 05:22:20;;;;;;;23.60;10.13;;;5.60;92.90;;;;;;4998438;28;20056;-70
2021/03/04 05:24:46;;;;;;;25.67;9.77;;;5.50;92.90;;;;;;4997862;28;20058;-70
2021/03/04 05:27:12;;;;;;;24.08;10.10;;;5.50;92.90;;;;;;4997350;28;20058;-70
2021/03/04 05:29:39;;;;;;;23.95;10.25;;;5.50;93.10;;;;;;4995865;28;20046;-70
2021/03/04 05:32:06;;;;;;;20.85;8.80;;;5.40;93.00;;;;;;4994513;28;20133;-70
2021/03/04 05:34:32;;;;;;;23.88;9.82;;;5.40;93.10;;;;;;4997436;28;20053;-70
2021/03/04 05:36:58;;;;;;;21.70;9.45;;;5.40;93.10;;;;;;4994906;28;20585;-70
2021/03/04 05:39:25;;;;;;;22.15;10.05;;;5.40;93.10;;;;;;4998821;28;20358;-70
2021/03/04 05:41:52;;;;;;;22.35;8.95;;;5.40;93.10;;;;;;4996834;28;20120;-70
2021/03/04 05:44:18;;;;;;;21.42;9.02;;;5.40;93.10;;;;;;4999705;28;20042;-70
2021/03/04 05:46:47;;;;;;;21.02;9.05;;;5.40;93.10;;;;;;5094307;27;20056;-70
2021/03/04 05:49:18;;;;;;;24.67;9.67;;;5.40;93.10;;;;;;4999431;28;20050;-70
2021/03/04 05:52:08;;;;;;;18.88;8.02;;;5.40;93.10;;;;;;4995651;28;20640;-70
2021/03/04 05:54:37;;;;;;;22.60;8.57;;;5.40;93.10;;;;;;5001680;28;20126;-70
2021/03/04 05:57:04;;;;;;;;;;;5.40;93.00;;;;;;5005934;28;20352;-70
2021/03/04 05:59:31;;;;;;;20.15;8.48;;;5.40;93.20;;;;;;5003785;28;19936;-70
2021/03/04 06:01:58;;;;;;;18.95;7.70;;;5.40;93.00;;;;;;5001936;28;20148;-70
2021/03/04 06:04:26;;;;;;;19.20;7.93;;;5.40;93.00;;;;;;5003359;28;20099;-70
2021/03/04 06:06:52;;;;;;;20.73;8.48;;;5.40;93.00;;;;;;5003672;28;20054;-70
2021/03/04 06:09:18;;;;;;;20.88;8.13;;;5.30;93.10;;;;;;5004943;28;20132;-70
2021/03/04 06:12:01;;;;;;;17.75;8.15;;;5.30;93.10;;;;;;5003242;28;20050;-70
2021/03/04 06:14:27;;;;;;;21.15;9.10;;;5.30;93.10;;;;;;5005129;28;20079;-70
2021/03/04 06:16:54;;;;;;;23.35;9.65;;;5.30;93.20;;;;;;5003482;28;20149;-70
2021/03/04 06:19:20;;;;;;;21.63;8.80;;;5.30;93.20;;;;;;5005038;28;20050;-70
2021/03/04 06:21:58;;;;;;;24.92;9.20;;;5.30;93.20;;;;;;5004096;28;20124;-70
2021/03/04 06:24:24;;;;;;;21.75;8.60;;;5.30;93.20;;;;;;5010496;28;20130;-71
2021/03/04 06:26:55;;;;;;;22.25;8.57;;;5.30;93.20;;;;;;5004545;28;20050;-70
2021/03/04 06:29:24;;;;;;;22.10;9.27;;;5.30;93.20;;;;;;5004163;28;20133;-70
2021/03/04 06:32:05;;;;;;;20.83;8.55;;;5.30;93.20;;;;;;5004209;28;20481;-70
2021/03/04 06:34:32;;;;;;;22.92;9.25;;;5.30;93.20;;;;;;5104292;27;20054;-71
2021/03/04 06:37:02;;;;;;;24.33;9.02;;;5.30;93.20;;;;;;5007696;28;20069;-70
2021/03/04 06:39:43;;;;;;;20.35;8.23;;;5.30;93.30;;;;;;5102410;27;20046;-70
2021/03/04 06:42:11;;;;;;;21.77;8.77;;;5.30;93.30;;;;;;5003027;28;20080;-70
2021/03/04 06:44:48;;;;;;;24.10;10.35;;;5.30;93.30;;;;;;5006613;28;20037;-70
2021/03/04 06:47:25;;;;;;;24.95;9.60;;;5.30;93.20;;;;;;5001021;28;20049;-70
2021/03/04 06:49:53;;;;;;;25.67;10.05;;;5.30;93.30;;;;;;5000743;28;20057;-70
2021/03/04 06:52:38;;;;;;;22.00;9.55;;;5.30;93.30;;;;;;5001778;28;20041;-70
2021/03/04 06:55:08;;;;;;;21.77;9.00;;;5.30;93.30;;;;;;5097316;27;20493;-70
2021/03/04 06:57:35;;;;;;;23.05;9.48;;;5.30;93.30;;;;;;5096723;27;20176;-70
2021/03/04 07:00:06;;;;;;;25.13;10.13;;;5.30;93.30;;;;;;5002310;28;20060;-70
2021/03/04 07:02:32;;;;;;;22.38;9.45;;;5.30;93.30;;;;;;5003296;28;20542;-70
2021/03/04 07:05:01;;;;;;;22.83;9.05;;;5.30;93.30;;;;;;5003360;28;20469;-70
2021/03/04 07:07:28;;;;;;;22.95;9.68;;;5.30;93.30;;;;;;5003079;28;20046;-70
2021/03/04 07:09:59;;;;;;;22.77;8.45;;;5.30;93.30;;;;;;5004882;28;20575;-70
2021/03/04 07:12:26;;;;;;;21.42;9.07;;;5.30;93.30;;;;;;5003609;28;20045;-70
2021/03/04 07:14:53;;;;;;;22.30;8.45;;;5.30;93.30;;;;;;5002610;28;20075;-70
2021/03/04 07:17:27;;;;;;;18.83;8.10;;;5.30;93.30;;;;;;5003004;28;20050;-70
2021/03/04 07:19:57;;;;;;;20.40;8.73;;;5.30;93.30;;;;;;5001825;28;20049;-70
2021/03/04 07:22:26;;;;;;;20.17;8.52;;;5.40;93.30;;;;;;5008125;28;20542;-70
2021/03/04 07:24:53;;;;;;;21.02;8.55;;;5.40;93.40;;;;;;5005101;28;20490;-70
2021/03/04 07:27:19;;;;;;;22.67;8.45;;;5.40;93.40;;;;;;5006566;28;20054;-70
2021/03/04 07:29:46;;;;;;;21.40;8.40;;;5.30;93.50;;;;;;5006824;28;20057;-70
2021/03/04 07:32:14;;;;;;;20.35;8.68;;;5.30;93.50;;;;;;5009902;28;20050;-70
2021/03/04 07:34:42;;;;;;;23.02;9.35;;;5.40;93.50;;;;;;5006787;28;20042;-69
2021/03/04 07:37:09;;;;;;;22.80;8.68;;;5.40;93.50;;;;;;5003995;28;20046;-69
2021/03/04 07:39:40;;;;;;;21.63;8.65;;;5.40;93.50;;;;;;5006709;28;20065;-70
2021/03/04 07:42:21;;;;;;;20.75;7.72;;;5.40;93.50;;;;;;5011085;28;20098;-70
2021/03/04 07:44:47;;;;;;;20.92;8.77;;;5.40;93.50;;;;;;5006129;28;20064;-69
2021/03/04 07:47:14;;;;;;;22.13;9.00;;;5.40;93.50;;;;;;5007720;28;20050;-69
2021/03/04 07:49:43;;;;;;;18.23;7.35;;;5.40;93.50;;;;;;5004447;28;20129;-70
2021/03/04 07:52:18;;;;;;;20.88;8.43;;;5.40;93.50;;;;;;5005862;28;20053;-69
2021/03/04 07:54:49;;;;;;;19.52;7.95;;;5.50;93.60;;;;;;5007318;28;20064;-69
2021/03/04 07:57:17;;;;;;;21.92;8.43;;;5.50;93.60;;;;;;5007491;28;20052;-69
2021/03/04 07:59:52;;;;;;;19.52;7.68;;;5.50;93.60;;;;;;5112819;27;20041;-69
2021/03/04 08:02:25;;;;;;;22.85;8.48;;;5.50;93.70;;;;;;5008827;28;20133;-70
2021/03/04 08:05:08;;;;;;;25.75;10.13;;;5.50;93.60;;;;;;5002770;28;20473;-70
2021/03/04 08:07:40;;;;;;;19.58;8.27;;;5.60;93.70;;;;;;5002626;28;20038;-70
2021/03/04 08:10:08;;;;;;;22.33;8.82;;;5.50;93.70;;;;;;5001243;28;20134;-70
2021/03/04 08:13:04;;;;;;;25.48;8.63;;;5.60;93.70;;;;;;5008540;28;20052;-70
2021/03/04 08:15:35;;;;;;;23.05;9.25;;;5.60;93.80;;;;;;5018629;28;20048;-70
2021/03/04 08:18:04;;;;;;;22.17;8.57;;;5.60;93.70;;;;;;5005975;28;20376;-70
2021/03/04 08:20:31;;;;;;;19.42;7.80;;;5.60;93.80;;;;;;5004135;28;20076;-70
2021/03/04 08:22:58;;;;;;;20.25;10.48;;;5.70;93.80;;;;;;5005705;28;20049;-70
2021/03/04 08:25:28;;;;;;;23.27;9.30;;;5.70;93.80;;;;;;5002392;28;20050;-70
2021/03/04 08:27:55;;;;;;;25.67;9.35;;;5.70;93.80;;;;;;5006158;28;20074;-70
2021/03/04 08:30:32;;;;;;;29.75;9.43;;;5.70;93.90;;;;;;5004027;28;20117;-70
2021/03/04 08:33:08;;;;;;;27.38;9.48;;;5.70;93.90;;;;;;5010952;28;20587;-69
2021/03/04 08:35:37;;;;;;;24.92;9.93;;;5.70;94.00;;;;;;5006709;28;20550;-70
2021/03/04 08:38:06;;;;;;;26.77;10.95;;;5.70;94.00;;;;;;5006163;28;20053;-70
2021/03/04 08:40:48;;;;;;;25.45;9.35;;;5.70;94.10;;;;;;5005081;28;20046;-70
2021/03/04 08:43:21;;;;;;;25.25;9.77;;;5.70;94.10;;;;;;5006584;28;20144;-70
2021/03/04 08:45:51;;;;;;;24.20;9.68;;;5.70;94.20;;;;;;5005428;28;20136;-70
2021/03/04 08:48:19;;;;;;;20.92;8.63;;;5.70;94.20;;;;;;5005206;28;20439;-70
2021/03/04 08:50:48;;;;;;;22.58;9.73;;;5.80;94.30;;;;;;5002944;28;20077;-70
2021/03/04 08:53:26;;;;;;;23.88;8.98;;;5.80;94.30;;;;;;5002644;28;20448;-70
2021/03/04 08:55:55;;;;;;;18.98;8.25;;;5.80;94.30;;;;;;5006332;28;20050;-70
2021/03/04 08:58:22;;;;;;;22.63;8.68;;;5.90;94.40;;;;;;5096410;27;20493;-70
2021/03/04 09:00:50;;;;;;;20.38;8.15;;;5.90;94.40;;;;;;5004472;28;20128;-70
2021/03/04 09:03:20;;;;;;;24.77;8.93;;;5.90;94.40;;;;;;5007058;28;20046;-70
2021/03/04 09:05:47;;;;;;;23.70;8.15;;;6.00;94.50;;;;;;4998396;28;20054;-70
2021/03/04 09:08:16;;;;;;;19.80;8.38;;;6.00;94.50;;;;;;5111229;27;20049;-70
2021/03/04 09:10:48;;;;;;;21.90;8.48;;;6.00;94.50;;;;;;5011248;28;20046;-70
2021/03/04 09:13:19;;;;;;;22.95;8.40;;;6.00;94.50;;;;;;5009876;28;20053;-70
2021/03/04 09:15:49;;;;;;;21.08;8.02;;;5.90;94.50;;;;;;5003760;28;20038;-70
2021/03/04 09:18:19;;;;;;;19.48;8.38;;;5.90;94.50;;;;;;5001807;28;20050;-70
2021/03/04 09:20:48;;;;;;;23.95;8.43;;;5.90;94.60;;;;;;5005299;28;20041;-70
2021/03/04 09:23:15;;;;;;;18.63;7.72;;;5.90;94.60;;;;;;5002638;28;20061;-70
2021/03/04 09:25:43;;;;;;;15.05;6.38;;;5.80;94.60;;;;;;5005719;28;20438;-70
2021/03/04 09:28:15;;;;;;;16.27;5.97;;;5.80;94.60;;;;;;5002213;28;20061;-70
2021/03/04 09:30:42;;;;;;;16.20;6.03;;;5.80;94.60;;;;;;4998133;28;20038;-69
2021/03/04 09:33:24;;;;;;;15.63;6.95;;;5.80;94.60;;;;;;5007669;28;20046;-70
2021/03/04 09:35:53;;;;;;;14.90;6.38;;;5.90;94.60;;;;;;5001629;28;20041;-70
2021/03/04 09:38:20;;;;;;;14.70;5.65;;;5.90;94.60;;;;;;5001357;28;20046;-70
2021/03/04 09:40:50;;;;;;;17.13;5.95;;;5.90;94.60;;;;;;5001422;28;20050;-70
2021/03/04 09:43:19;;;;;;;15.27;6.47;;;6.00;94.70;;;;;;5003770;28;20373;-70
2021/03/04 09:45:46;;;;;;;;;;;5.90;94.70;;;;;;5006555;28;20050;-70
2021/03/04 09:48:14;;;;;;;14.40;6.03;;;5.90;94.80;;;;;;5000082;28;19921;-70
2021/03/04 09:50:50;;;;;;;17.67;6.47;;;5.90;94.80;;;;;;5004913;28;20133;-70
2021/03/04 09:53:17;;;;;;;14.48;6.10;;;5.90;94.70;;;;;;5010090;28;20044;-71
2021/03/04 09:55:45;;;;;;;14.95;6.22;;;5.90;94.70;;;;;;5006078;28;20377;-70
2021/03/04 09:58:17;;;;;;;13.45;5.45;;;5.80;94.70;;;;;;5004852;28;20084;-71
2021/03/04 10:00:44;;;;;;;15.98;6.38;;;5.80;94.70;;;;;;5002963;28;20050;-70
2021/03/04 10:03:33;;;;;;;14.88;5.22;;;5.80;94.80;;;;;;5006562;28;20050;-70
2021/03/04 10:06:00;;;;;;;11.50;5.20;;;5.80;94.90;;;;;;5004056;28;20362;-70
2021/03/04 10:08:37;;;;;;;15.70;5.93;;;5.90;94.90;;;;;;5005902;28;20056;-70
2021/03/04 10:11:03;;;;;;;14.20;5.18;;;5.90;95.00;;;;;;5004257;28;20042;-70
2021/03/04 10:13:30;;;;;;;14.70;5.68;;;5.80;94.90;;;;;;5004766;28;20052;-70
2021/03/04 10:16:11;;;;;;;12.20;5.00;;;5.80;95.00;;;;;;5004917;28;20126;-70
2021/03/04 10:18:37;;;;;;;11.40;5.30;;;5.80;95.00;;;;;;5110793;27;20052;-70
2021/03/04 10:21:04;;;;;;;11.90;5.35;;;5.80;95.00;;;;;;5004105;28;20469;-69
2021/03/04 10:23:31;;;;;;;12.35;4.97;;;5.80;95.00;;;;;;5004225;28;20052;-70
2021/03/04 10:25:57;;;;;;;9.85;4.45;;;5.90;94.90;;;;;;5003142;28;20052;-70
2021/03/04 10:28:24;;;;;;;9.43;4.22;;;5.90;95.00;;;;;;5004052;28;20140;-70
2021/03/04 10:30:51;;;;;;;10.82;5.40;;;5.90;95.00;;;;;;5002641;28;20048;-70
2021/03/04 10:33:19;;;;;;;12.27;4.78;;;5.90;95.00;;;;;;5004721;28;20137;-70
2021/03/04 10:35:45;;;;;;;9.95;4.50;;;5.90;94.90;;;;;;5004792;28;20048;-70
2021/03/04 10:38:11;;;;;;;9.23;4.10;;;5.80;95.10;;;;;;5004487;28;20042;-70
2021/03/04 10:40:38;;;;;;;10.93;4.07;;;5.80;95.00;;;;;;5007695;28;20050;-70
2021/03/04 10:43:04;;;;;;;9.23;4.45;;;5.70;95.00;;;;;;5005844;28;20065;-70
2021/03/04 10:45:31;;;;;;;8.55;3.72;;;5.70;95.00;;;;;;5006251;28;20054;-70
2021/03/04 10:47:57;;;;;;;8.88;4.05;;;5.70;95.10;;;;;;4999752;28;20057;-70
2021/03/04 10:50:24;;;;;;;9.18;3.78;;;5.70;95.10;;;;;;5001924;28;20134;-70
2021/03/04 10:52:50;;;;;;;10.77;4.00;;;5.70;95.10;;;;;;5098434;27;20046;-70
2021/03/04 10:55:36;;;;;;;8.63;3.08;;;5.80;95.20;;;;;;5008102;28;20046;-70
2021/03/04 10:58:02;;;;;;;9.00;3.50;;;5.80;95.20;;;;;;5007859;28;20132;-70
2021/03/04 11:00:28;;;;;;;6.35;3.05;;;5.80;95.20;;;;;;5006603;28;20045;-70
2021/03/04 11:02:54;;;;;;;7.60;3.00;;;5.80;95.30;;;;;;5006962;28;20046;-70
2021/03/04 11:05:21;;;;;;;9.60;2.70;;;5.80;95.30;;;;;;5007780;28;20050;-70
2021/03/04 11:07:47;;;;;;;7.90;2.80;;;5.80;95.30;;;;;;5006498;28;20072;-70
2021/03/04 11:10:13;;;;;;;6.78;3.30;;;5.90;95.30;;;;;;5004041;28;20061;-70
2021/03/04 11:12:46;;;;;;;6.35;3.03;;;5.90;95.30;;;;;;4995353;28;20054;-70
2021/03/04 11:15:13;;;;;;;5.13;2.70;;;5.90;95.30;;;;;;4998819;28;20056;-70
2021/03/04 11:17:39;;;;;;;5.75;2.55;;;5.90;95.30;;;;;;4997727;28;20433;-70
2021/03/04 11:20:07;;;;;;;6.32;2.70;;;5.90;95.30;;;;;;5000276;28;20045;-70
2021/03/04 11:22:33;;;;;;;6.22;2.75;;;6.00;95.40;;;;;;5004482;28;20046;-70
2021/03/04 11:25:00;;;;;;;6.53;2.97;;;6.00;95.40;;;;;;5005000;28;20174;-70
2021/03/04 11:27:26;;;;;;;6.38;2.95;;;6.00;95.30;;;;;;4999908;28;20149;-70
2021/03/04 11:29:54;;;;;;;6.03;2.80;;;6.00;95.30;;;;;;5001821;28;20054;-70
2021/03/04 11:32:25;;;;;;;6.55;2.80;;;6.10;95.40;;;;;;5001983;28;20126;-71
2021/03/04 11:34:51;;;;;;;5.38;2.75;;;6.10;95.40;;;;;;4999603;28;20056;-70
2021/03/04 11:37:18;;;;;;;4.88;2.65;;;6.10;95.40;;;;;;5005556;28;20041;-70
2021/03/04 11:39:45;;;;;;;4.63;2.38;;;6.10;95.40;;;;;;5005444;28;20046;-70
2021/03/04 11:42:11;;;;;;;3.63;2.20;;;6.20;95.50;;;;;;5000886;28;20057;-70
2021/03/04 11:44:37;;;;;;;4.10;2.30;;;6.20;95.50;;;;;;5004982;28;20055;-71
2021/03/04 11:47:04;;;;;;;3.28;1.95;;;6.30;95.60;;;;;;5001474;28;20420;-70
2021/03/04 11:49:30;;;;;;;3.92;2.30;;;6.40;95.60;;;;;;5000539;28;20485;-71
2021/03/04 11:51:57;;;;;;;4.03;2.30;;;6.50;95.60;;;;;;5006596;28;20057;-72
2021/03/04 11:54:23;;;;;;;5.10;2.20;;;6.50;95.60;;;;;;5000629;28;20065;-70
2021/03/04 11:56:49;;;;;;;3.45;2.10;;;6.60;95.70;;;;;;4999469;28;20049;-70
2021/03/04 11:59:16;;;;;;;6.70;2.25;;;6.60;95.70;;;;;;4997439;28;20053;-70
2021/03/04 12:01:42;;;;;;;3.55;2.38;;;6.80;95.90;;;;;;5000168;28;20078;-71
2021/03/04 12:04:09;;;;;;;3.47;2.30;;;6.90;96.00;;;;;;5007974;28;20093;-71
2021/03/04 12:06:36;;;;;;;4.20;2.42;;;7.00;96.00;;;;;;4999516;28;20056;-71
2021/03/04 12:09:03;;;;;;;4.85;3.45;;;7.00;95.90;;;;;;5000139;28;20050;-71
2021/03/04 12:11:44;;;;;;;4.70;2.45;;;7.10;95.90;;;;;;4999489;28;20072;-70
2021/03/04 12:14:10;;;;;;;5.82;3.10;;;7.10;95.90;;;;;;5000486;28;20489;-70
2021/03/04 12:16:37;;;;;;;3.38;2.85;;;7.20;95.90;;;;;;5000647;28;20751;-70
2021/03/04 12:19:04;;;;;;;3.15;2.08;;;7.20;95.90;;;;;;5006214;28;20067;-70
2021/03/04 12:21:31;;;;;;;4.80;2.08;;;7.20;95.90;;;;;;4999710;28;20077;-70
2021/03/04 12:23:57;;;;;;;4.07;2.33;;;7.20;95.80;;;;;;4998410;28;20068;-70
2021/03/04 12:26:37;;;;;;;4.80;3.03;;;7.30;95.80;;;;;;5084741;27;20049;-70
2021/03/04 12:29:03;;;;;;;4.20;3.70;;;7.30;95.80;;;;;;5000306;28;20071;-70
2021/03/04 12:31:29;;;;;;;4.22;3.70;;;7.30;95.70;;;;;;5000808;28;20058;-70
2021/03/04 12:33:56;;;;;;;5.15;3.97;;;7.30;95.70;;;;;;5003939;28;20068;-70
2021/03/04 12:36:22;;;;;;;7.97;3.63;;;7.30;95.70;;;;;;5000998;28;20058;-70
2021/03/04 12:38:49;;;;;;;4.90;3.53;;;7.30;95.60;;;;;;5004814;28;20072;-70
2021/03/04 12:41:15;;;;;;;4.07;3.20;;;7.30;95.60;;;;;;5003379;28;20058;-70
2021/03/04 12:43:41;;;;;;;3.72;3.42;;;7.30;95.60;;;;;;5000264;28;20541;-70
2021/03/04 12:46:07;;;;;;;4.00;3.40;;;7.30;95.60;;;;;;5003956;28;20368;-70
2021/03/04 12:48:40;;;;;;;3.92;3.10;;;7.30;95.60;;;;;;5000129;28;20070;-70
2021/03/04 12:51:07;;;;;;;5.10;4.07;;;7.30;95.60;;;;;;5001593;28;20487;-70
2021/03/04 12:53:33;;;;;;;5.53;2.85;;;7.30;95.70;;;;;;4999884;28;20057;-70